Time;durP1;ratioP1;P1;durP2;ratioP2;P2;SDS_P1;SDS_P2;PMS_P1;PMS_P2;Temp;Humidity;BMP_temperature;BMP_pressure;BME280_temperature;BME280_humidity;BME280_pressure;Samples;Min_cycle;Max_cycle;Signal;HPM_P1;HPM_P2
2023/07/03 00:00:00;;;;;;;;;;;14.90;99.90;;;;;;8480032;22;19932;-78
2023/07/03 00:04:00;;;;;;;;;;;14.90;99.90;;;;;;8383643;28;19920;-77
2023/07/03 00:08:01;;;;;;;;;;;15.00;99.90;;;;;;8384514;28;20400;-78
2023/07/03 00:12:01;;;;;;;;;;;15.00;99.90;;;;;;8369940;28;19921;-78
2023/07/03 00:16:03;;;;;;;;;;;15.00;99.90;;;;;;8352007;28;20007;-78
2023/07/03 00:20:05;;;;;;;;;;;15.00;99.90;;;;;;8429922;22;19924;-78
2023/07/03 00:24:06;;;;;;;;;;;15.00;99.90;;;;;;8399080;28;19944;-77
2023/07/03 00:28:06;;;;;;;;;;;15.10;99.90;;;;;;8395222;28;20402;-78
2023/07/03 00:36:46;;;;;;;;;;;14.80;99.90;;;;;;8316097;28;19917;-78
2023/07/03 00:40:46;;;;;;;;;;;14.80;99.90;;;;;;8386123;22;19928;-78
2023/07/03 00:44:47;;;;;;;;;;;15.00;99.90;;;;;;8409350;28;19957;-78
2023/07/03 00:48:47;;;;;;;;;;;15.10;99.90;;;;;;8417679;22;19931;-78
2023/07/03 00:52:51;;;;;;;;;;;15.00;99.90;;;;;;8413238;28;19919;-78
2023/07/03 00:56:52;;;;;;;;;;;15.40;99.90;;;;;;8394352;28;19920;-78
2023/07/03 01:01:13;;;;;;;;;;;15.20;99.90;;;;;;8403542;28;20034;-78
2023/07/03 01:05:22;;;;;;;;;;;15.60;99.90;;;;;;8384639;28;19929;-78
2023/07/03 01:09:24;;;;;;;;;;;15.50;99.90;;;;;;8385465;28;19932;-77
2023/07/03 01:13:26;;;;;;;;;;;15.80;99.90;;;;;;8397920;28;19921;-78
2023/07/03 01:17:28;;;;;;;;;;;15.80;99.90;;;;;;8405724;28;20381;-77
2023/07/03 01:21:31;;;;;;;;;;;15.70;99.90;;;;;;8402195;28;19961;-77
2023/07/03 01:25:34;;;;;;;;;;;15.50;99.90;;;;;;8395034;28;20098;-77
2023/07/03 01:29:35;;;;;;;;;;;15.20;99.90;;;;;;8403579;28;19978;-77
2023/07/03 01:33:40;;;;;;;;;;;14.90;99.90;;;;;;8381382;28;19912;-77
2023/07/03 01:37:42;;;;;;;;;;;14.90;99.90;;;;;;8381987;28;19967;-77
2023/07/03 01:41:43;;;;;;;;;;;14.90;99.90;;;;;;8381183;22;20452;-77
2023/07/03 01:45:44;;;;;;;;;;;14.90;99.90;;;;;;8356463;28;19932;-77
2023/07/03 01:49:45;;;;;;;;;;;14.80;99.90;;;;;;8407233;22;19942;-78
2023/07/03 01:53:53;;;;;;;;;;;14.60;99.90;;;;;;8427442;28;19912;-78
2023/07/03 02:02:15;;;;;;;;;;;14.80;99.90;;;;;;8469659;22;19932;-78
2023/07/03 02:06:20;;;;;;;;;;;15.10;99.90;;;;;;8402170;28;19974;-78
2023/07/03 02:10:20;;;;;;;;;;;15.20;99.90;;;;;;8416020;28;19923;-78
2023/07/03 02:14:24;;;;;;;;;;;15.20;99.90;;;;;;8416018;28;20263;-77
2023/07/03 02:18:24;;;;;;;;;;;14.80;99.90;;;;;;8402948;28;19916;-78
2023/07/03 02:22:25;;;;;;;;;;;14.80;99.90;;;;;;8400365;28;19912;-78
2023/07/03 02:26:25;;;;;;;;;;;14.70;99.90;;;;;;8396877;28;19924;-77
2023/07/03 02:30:26;;;;;;;;;;;14.80;99.90;;;;;;8515967;23;19943;-77
2023/07/03 02:34:28;;;;;;;;;;;14.90;99.90;;;;;;8445349;28;19924;-77
2023/07/03 02:38:28;;;;;;;;;;;14.90;99.90;;;;;;8445176;22;19927;-77
2023/07/03 02:42:28;;;;;;;;;;;14.90;99.90;;;;;;8455036;28;20020;-77
2023/07/03 02:46:29;;;;;;;;;;;15.00;99.90;;;;;;8450754;28;19926;-77
2023/07/03 02:50:30;;;;;;;;;;;14.90;99.90;;;;;;8449452;28;19920;-78
2023/07/03 02:54:33;;;;;;;;;;;15.10;99.90;;;;;;8454407;28;20007;-77
2023/07/03 02:58:34;;;;;;;;;;;14.90;99.90;;;;;;8434478;28;20049;-77
2023/07/03 03:02:34;;;;;;;;;;;14.80;99.90;;;;;;8431101;28;20372;-78
2023/07/03 03:06:35;;;;;;;;;;;14.80;99.90;;;;;;8435404;28;19912;-78
2023/07/03 03:10:36;;;;;;;;;;;14.90;99.90;;;;;;8435132;28;19922;-78
2023/07/03 03:14:36;;;;;;;;;;;14.90;99.90;;;;;;8439604;28;20398;-77
2023/07/03 03:18:37;;;;;;;;;;;15.10;99.90;;;;;;8454727;22;20321;-78
2023/07/03 03:22:37;;;;;;;;;;;15.50;99.90;;;;;;8390857;28;20024;-77
2023/07/03 03:26:38;;;;;;;;;;;15.80;99.90;;;;;;8375548;28;19921;-77
2023/07/03 03:30:38;;;;;;;;;;;15.70;99.90;;;;;;8406426;22;19933;-77
2023/07/03 03:34:39;;;;;;;;;;;15.60;99.90;;;;;;8413448;28;20383;-78
2023/07/03 03:44:04;;;;;;;;;;;15.20;99.90;;;;;;8440664;28;19950;-78
2023/07/03 03:48:05;;;;;;;;;;;15.10;99.90;;;;;;8436961;28;19926;-77
2023/07/03 03:52:15;;;;;;;;;;;15.40;99.90;;;;;;8435434;28;20308;-77
2023/07/03 03:56:15;;;;;;;;;;;15.40;99.90;;;;;;8452044;28;20337;-77
2023/07/03 04:00:16;;;;;;;;;;;15.50;99.90;;;;;;8479947;22;19924;-77
2023/07/03 04:04:17;;;;;;;;;;;15.90;99.90;;;;;;8422462;28;19919;-77
2023/07/03 04:08:17;;;;;;;;;;;15.60;99.90;;;;;;8406696;28;19920;-78
2023/07/03 04:12:18;;;;;;;;;;;15.60;99.90;;;;;;8393268;28;19920;-77
2023/07/03 04:16:18;;;;;;;;;;;16.00;99.90;;;;;;8393988;28;19920;-78
2023/07/03 04:20:22;;;;;;;;;;;15.80;99.90;;;;;;8392330;28;19916;-78
2023/07/03 04:24:24;;;;;;;;;;;16.00;99.90;;;;;;8403825;28;20385;-78
2023/07/03 04:28:25;;;;;;;;;;;16.10;99.90;;;;;;8385387;28;20415;-78
2023/07/03 04:32:25;;;;;;;;;;;16.10;99.90;;;;;;8378384;28;19913;-78
2023/07/03 04:36:26;;;;;;;;;;;16.10;99.90;;;;;;8386464;28;20399;-78
2023/07/03 04:40:27;;;;;;;;;;;16.30;99.90;;;;;;8380437;28;20123;-77
2023/07/03 04:44:27;;;;;;;;;;;16.30;99.90;;;;;;8377006;28;19955;-77
2023/07/03 04:48:31;;;;;;;;;;;16.30;99.90;;;;;;8388348;28;20649;-78
2023/07/03 04:52:31;;;;;;;;;;;16.70;99.90;;;;;;8387444;28;20363;-78
2023/07/03 04:56:32;;;;;;;;;;;16.50;99.90;;;;;;8385870;28;19916;-77
2023/07/03 05:00:33;;;;;;;;;;;16.80;99.90;;;;;;8389304;28;19962;-77
2023/07/03 05:04:34;;;;;;;;;;;16.70;99.90;;;;;;8389767;28;19908;-78
2023/07/03 05:13:43;;;;;;;;;;;16.90;99.90;;;;;;8288514;28;20426;-84
2023/07/03 05:17:47;;;;;;;;;;;17.00;99.90;;;;;;8284259;28;19928;-83
2023/07/03 05:21:48;;;;;;;;;;;17.20;99.90;;;;;;8372661;28;20427;-83
2023/07/03 05:25:48;;;;;;;;;;;17.80;99.90;;;;;;8396513;28;19912;-83
2023/07/03 05:29:49;;;;;;;;;;;17.90;99.90;;;;;;8400591;28;19924;-84
2023/07/03 05:33:50;;;;;;;;;;;17.70;99.90;;;;;;8401794;28;19923;-84
2023/07/03 05:37:50;;;;;;;;;;;17.00;99.90;;;;;;8411504;28;19913;-83
2023/07/03 05:41:50;;;;;;;;;;;17.80;99.90;;;;;;8410999;28;19908;-83
2023/07/03 05:45:57;;;;;;;;;;;18.20;99.90;;;;;;8404839;28;20623;-84
2023/07/03 05:49:58;;;;;;;;;;;18.00;99.90;;;;;;8403251;28;19921;-83
2023/07/03 05:54:16;;;;;;;;;;;18.40;99.90;;;;;;8976801;22;20025;-82
2023/07/03 05:58:16;;;;;;;;;;;18.50;99.90;;;;;;8352122;28;19913;-82
2023/07/03 06:02:17;;;;;;;;;;;19.10;99.90;;;;;;8348365;28;19916;-82
2023/07/03 06:06:24;;;;;;;;;;;19.00;99.90;;;;;;8345471;28;20450;-79
2023/07/03 06:10:45;;;;;;;;;;;19.00;99.90;;;;;;8329050;28;19966;-79
2023/07/03 06:14:58;;;;;;;;;;;19.20;99.90;;;;;;8357651;28;19913;-79
2023/07/03 06:18:59;;;;;;;;;;;19.40;99.90;;;;;;8359182;28;20376;-79
2023/07/03 06:22:59;;;;;;;;;;;20.10;99.90;;;;;;8342389;28;19912;-79
2023/07/03 06:27:00;;;;;;;;;;;19.80;99.90;;;;;;8360778;28;19919;-78
2023/07/03 06:31:00;;;;;;;;;;;20.20;99.90;;;;;;8357944;28;19995;-79
2023/07/03 06:35:01;;;;;;;;;;;20.40;99.90;;;;;;8339184;28;19909;-78
2023/07/03 06:39:04;;;;;;;;;;;20.60;99.90;;;;;;8359631;28;20331;-79
2023/07/03 06:43:05;;;;;;;;;;;20.30;99.90;;;;;;8334441;28;19935;-79
2023/07/03 06:47:05;;;;;;;;;;;20.40;99.90;;;;;;8334112;28;19917;-79
2023/07/03 06:51:07;;;;;;;;;;;20.60;99.90;;;;;;8356593;28;19967;-79
2023/07/03 06:55:08;;;;;;;;;;;20.50;99.90;;;;;;8358697;28;19967;-79
2023/07/03 06:59:08;;;;;;;;;;;20.50;99.90;;;;;;8358275;28;20333;-84
2023/07/03 07:03:08;;;;;;;;;;;20.70;99.90;;;;;;8343066;28;20000;-83
2023/07/03 07:07:18;;;;;;;;;;;20.90;99.90;;;;;;8344759;28;19952;-83
2023/07/03 07:16:58;;;;;;;;;;;;;;;;;;;;;
2023/07/03 07:21:00;;;;;;;;;;;21.30;99.90;;;;;;8389963;28;19951;-85
2023/07/03 07:25:01;;;;;;;;;;;21.50;99.90;;;;;;8382436;22;20400;-85
2023/07/03 07:29:19;;;;;;;;;;;21.90;99.90;;;;;;8307389;28;19924;-83
2023/07/03 07:38:05;;;;;;;;;;;21.80;99.90;;;;;;8355143;28;19921;-86
2023/07/03 07:42:06;;;;;;;;;;;21.90;99.90;;;;;;8344712;28;20132;-85
2023/07/03 07:46:09;;;;;;;;;;;22.20;99.90;;;;;;8359676;28;19916;-83
2023/07/03 07:50:10;;;;;;;;;;;22.10;99.90;;;;;;8360981;28;20023;-78
2023/07/03 07:54:16;;;;;;;;;;;22.20;99.90;;;;;;8350208;28;19964;-78
2023/07/03 07:58:17;;;;;;;;;;;22.50;99.90;;;;;;8336219;28;20277;-78
2023/07/03 08:02:19;;;;;;;;;;;22.40;99.90;;;;;;8357617;28;21453;-78
2023/07/03 08:06:19;;;;;;;;;;;22.70;99.90;;;;;;8337687;28;19919;-78
2023/07/03 08:10:20;;;;;;;;;;;22.60;99.90;;;;;;8354357;28;19912;-79
2023/07/03 08:14:20;;;;;;;;;;;23.10;99.90;;;;;;8356638;28;20252;-78
2023/07/03 08:18:21;;;;;;;;;;;23.60;99.90;;;;;;8347878;28;19963;-78
2023/07/03 08:22:22;;;;;;;;;;;23.60;99.90;;;;;;8349010;28;19958;-77
2023/07/03 08:26:23;;;;;;;;;;;23.50;99.90;;;;;;8350953;28;19923;-79
2023/07/03 08:30:24;;;;;;;;;;;23.20;99.90;;;;;;8366546;28;19939;-79
2023/07/03 08:34:24;;;;;;;;;;;22.90;99.90;;;;;;8354331;28;19917;-79
2023/07/03 08:38:24;;;;;;;;;;;23.30;99.90;;;;;;8356596;28;20482;-78
2023/07/03 08:42:28;;;;;;;;;;;23.40;99.90;;;;;;8355850;28;19913;-78
2023/07/03 08:46:31;;;;;;;;;;;23.30;99.90;;;;;;8350029;28;19934;-78
2023/07/03 08:50:32;;;;;;;;;;;23.50;99.90;;;;;;8357579;28;19912;-78
2023/07/03 08:54:35;;;;;;;;;;;23.40;99.90;;;;;;8356296;28;19909;-78
2023/07/03 08:58:35;;;;;;;;;;;23.10;99.90;;;;;;8357936;28;20146;-78
2023/07/03 09:02:55;;;;;;;;;;;22.80;99.90;;;;;;8355159;28;19939;-79
2023/07/03 09:06:57;;;;;;;;;;;22.90;99.90;;;;;;8355995;28;19916;-77
2023/07/03 09:10:58;;;;;;;;;;;22.60;99.90;;;;;;8344508;28;19913;-79
2023/07/03 09:15:04;;;;;;;;;;;22.50;99.90;;;;;;8344101;28;20407;-78
2023/07/03 09:19:17;;;;;;;;;;;22.30;99.90;;;;;;8347015;28;20157;-77
2023/07/03 09:23:26;;;;;;;;;;;22.70;99.90;;;;;;8362289;28;20006;-78
2023/07/03 09:27:27;;;;;;;;;;;22.90;99.90;;;;;;8344566;28;19909;-77
2023/07/03 09:31:28;;;;;;;;;;;22.90;99.90;;;;;;8364092;28;20380;-79
2023/07/03 09:35:35;;;;;;;;;;;23.90;99.90;;;;;;8361914;28;19917;-79
2023/07/03 09:39:35;;;;;;;;;;;25.20;99.90;;;;;;8356752;28;20569;-78
2023/07/03 09:43:41;;;;;;;;;;;25.20;99.90;;;;;;8370556;28;19920;-79
2023/07/03 09:47:46;;;;;;;;;;;25.50;99.90;;;;;;8366159;28;20342;-79
2023/07/03 09:51:51;;;;;;;;;;;26.50;99.90;;;;;;8342236;28;20011;-79
2023/07/03 09:55:52;;;;;;;;;;;26.30;99.90;;;;;;8345465;28;20324;-78
2023/07/03 09:59:53;;;;;;;;;;;26.30;99.90;;;;;;8338347;28;19915;-79
2023/07/03 10:04:11;;;;;;;;;;;26.30;99.90;;;;;;8341633;28;19968;-78
2023/07/03 10:08:12;;;;;;;;;;;26.30;98.30;;;;;;8344752;28;19917;-78
2023/07/03 10:12:33;;;;;;;;;;;26.20;98.70;;;;;;8344755;28;19923;-78
2023/07/03 10:16:33;;;;;;;;;;;26.20;99.90;;;;;;8362890;28;20261;-79
2023/07/03 10:20:41;;;;;;;;;;;26.70;95.90;;;;;;8344219;28;19916;-79
2023/07/03 10:24:42;;;;;;;;;;;25.40;98.00;;;;;;8360470;28;20536;-78
2023/07/03 10:28:45;;;;;;;;;;;25.30;99.40;;;;;;8340603;28;20380;-78
2023/07/03 10:32:47;;;;;;;;;;;25.80;99.90;;;;;;8360274;28;19923;-79
2023/07/03 10:36:49;;;;;;;;;;;25.50;99.50;;;;;;8344517;28;20419;-79
2023/07/03 10:40:49;;;;;;;;;;;25.60;99.90;;;;;;8341505;28;19909;-79
2023/07/03 10:44:52;;;;;;;;;;;26.00;99.90;;;;;;8362958;28;20379;-79
2023/07/03 10:48:53;;;;;;;;;;;27.30;97.20;;;;;;8362133;28;19944;-77
2023/07/03 10:53:12;;;;;;;;;;;27.50;93.30;;;;;;8342294;28;19971;-79
2023/07/03 10:57:17;;;;;;;;;;;27.90;95.70;;;;;;8360859;28;20042;-79
2023/07/03 11:01:30;;;;;;;;;;;27.40;95.40;;;;;;8350864;28;19909;-78
2023/07/03 11:05:34;;;;;;;;;;;26.50;97.00;;;;;;8353235;28;20377;-78
2023/07/03 11:09:44;;;;;;;;;;;26.00;96.50;;;;;;8352336;28;19943;-79
2023/07/03 11:13:49;;;;;;;;;;;25.40;97.60;;;;;;8358387;28;19920;-78
2023/07/03 11:17:55;;;;;;;;;;;24.90;98.80;;;;;;8353867;28;20397;-79
2023/07/03 11:22:00;;;;;;;;;;;23.50;99.80;;;;;;8361226;28;20018;-78
2023/07/03 11:26:11;;;;;;;;;;;22.90;99.90;;;;;;8343250;28;19913;-79
2023/07/03 11:30:12;;;;;;;;;;;22.60;99.90;;;;;;8349563;28;20059;-78
2023/07/03 11:34:14;;;;;;;;;;;22.50;99.90;;;;;;8360923;28;19921;-79
2023/07/03 11:38:18;;;;;;;;;;;22.40;99.90;;;;;;8359741;28;20363;-79
2023/07/03 11:42:22;;;;;;;;;;;22.30;99.90;;;;;;8360271;28;19954;-78
2023/07/03 11:46:24;;;;;;;;;;;22.20;99.90;;;;;;8341833;28;20422;-78
2023/07/03 11:50:32;;;;;;;;;;;22.60;99.90;;;;;;8355650;28;19912;-78
2023/07/03 11:54:34;;;;;;;;;;;22.80;99.90;;;;;;8343732;28;19908;-78
2023/07/03 11:58:34;;;;;;;;;;;22.70;99.90;;;;;;8350883;28;19990;-78
2023/07/03 12:02:38;;;;;;;;;;;22.70;99.90;;;;;;8365677;28;19988;-77
2023/07/03 12:06:41;;;;;;;;;;;22.70;99.90;;;;;;8358590;28;19924;-80
2023/07/03 12:10:46;;;;;;;;;;;23.80;99.90;;;;;;8357991;28;19944;-78
2023/07/03 12:15:00;;;;;;;;;;;26.50;99.90;;;;;;8348472;22;19932;-78
2023/07/03 12:19:09;;;;;;;;;;;27.30;96.10;;;;;;8326024;28;19956;-78
2023/07/03 12:23:10;;;;;;;;;;;27.00;97.20;;;;;;8315088;28;19913;-78
2023/07/03 12:27:11;;;;;;;;;;;26.10;97.10;;;;;;8348062;28;19913;-79
2023/07/03 12:31:11;;;;;;;;;;;26.00;96.10;;;;;;8329458;28;19921;-78
2023/07/03 12:35:16;;;;;;;;;;;26.30;97.40;;;;;;8316357;28;19925;-79
2023/07/03 12:39:17;;;;;;;;;;;25.90;96.50;;;;;;8324515;28;19909;-78
2023/07/03 12:43:18;;;;;;;;;;;25.70;96.20;;;;;;8323030;28;19976;-79
2023/07/03 12:47:19;;;;;;;;;;;25.80;96.70;;;;;;8339184;28;20294;-78
2023/07/03 12:51:20;;;;;;;;;;;27.40;95.10;;;;;;8312144;28;19928;-79
2023/07/03 12:55:21;;;;;;;;;;;27.50;95.50;;;;;;8327902;28;19944;-78
2023/07/03 12:59:23;;;;;;;;;;;26.70;93.40;;;;;;8307196;28;19913;-79
2023/07/03 13:03:24;;;;;;;;;;;26.30;95.20;;;;;;8338370;28;20472;-80
2023/07/03 13:07:25;;;;;;;;;;;26.60;93.10;;;;;;8322684;28;19915;-79
2023/07/03 13:11:45;;;;;;;;;;;26.70;92.70;;;;;;8309050;28;19913;-80
2023/07/03 13:15:45;;;;;;;;;;;27.10;96.70;;;;;;8341244;28;20289;-79
2023/07/03 13:19:45;;;;;;;;;;;27.60;91.20;;;;;;8325952;28;19921;-78
2023/07/03 13:23:46;;;;;;;;;;;28.30;90.80;;;;;;8310825;28;20352;-79
2023/07/03 13:27:47;;;;;;;;;;;28.80;90.20;;;;;;8336553;28;20004;-79
2023/07/03 13:31:48;;;;;;;;;;;29.70;90.00;;;;;;8324254;28;19980;-78
2023/07/03 13:35:50;;;;;;;;;;;30.20;84.20;;;;;;8329071;28;19912;-79
2023/07/03 13:39:51;;;;;;;;;;;28.70;82.90;;;;;;8322555;28;19920;-79
2023/07/03 13:43:54;;;;;;;;;;;28.50;90.50;;;;;;8318700;28;19921;-79
2023/07/03 13:47:54;;;;;;;;;;;28.10;87.60;;;;;;8329143;28;20090;-79
2023/07/03 13:51:55;;;;;;;;;;;27.90;83.80;;;;;;8325807;28;20339;-79
2023/07/03 13:55:55;;;;;;;;;;;26.90;84.20;;;;;;8306219;28;19909;-84
2023/07/03 13:59:56;;;;;;;;;;;26.80;90.70;;;;;;8342624;28;19908;-84
2023/07/03 14:03:56;;;;;;;;;;;25.40;90.20;;;;;;8327282;28;19984;-84
2023/07/03 14:07:57;;;;;;;;;;;24.60;92.80;;;;;;8348863;28;19919;-86
2023/07/03 14:11:58;;;;;;;;;;;24.20;93.80;;;;;;8311021;28;19924;-84
2023/07/03 14:15:58;;;;;;;;;;;24.30;93.30;;;;;;8351845;28;19916;-83
2023/07/03 14:19:59;;;;;;;;;;;25.80;96.50;;;;;;8342682;28;20423;-83
2023/07/03 14:24:00;;;;;;;;;;;29.10;90.30;;;;;;8536294;22;19935;-85
2023/07/03 14:28:40;;;;;;;;;;;28.90;90.20;;;;;;8370382;28;19913;-83
2023/07/03 14:32:41;;;;;;;;;;;28.60;84.20;;;;;;8377174;22;20274;-83
2023/07/03 14:36:41;;;;;;;;;;;27.30;89.00;;;;;;8386912;28;19921;-84
2023/07/03 14:40:45;;;;;;;;;;;26.70;88.60;;;;;;8359078;28;19920;-85
2023/07/03 14:45:03;;;;;;;;;;;27.20;89.40;;;;;;8363916;28;19915;-84
2023/07/03 14:49:13;;;;;;;;;;;26.60;88.90;;;;;;8349208;28;20468;-85
2023/07/03 14:57:52;;;;;;;;;;;25.70;91.50;;;;;;8391684;28;20011;-85
2023/07/03 15:01:52;;;;;;;;;;;27.10;90.60;;;;;;8380932;28;19920;-83
2023/07/03 15:05:53;;;;;;;;;;;29.60;79.80;;;;;;8374975;28;19920;-82
2023/07/03 15:09:53;;;;;;;;;;;28.80;85.30;;;;;;8388698;28;19932;-87
2023/07/03 15:14:00;;;;;;;;;;;27.30;85.20;;;;;;8365106;28;19912;-84
2023/07/03 15:18:01;;;;;;;;;;;26.10;85.70;;;;;;8363753;28;19924;-85
2023/07/03 15:22:02;;;;;;;;;;;25.60;91.10;;;;;;8364183;28;19928;-84
2023/07/03 15:26:07;;;;;;;;;;;25.30;92.10;;;;;;8380793;28;19912;-84
2023/07/03 15:30:07;;;;;;;;;;;24.90;90.30;;;;;;8399036;28;19916;-82
2023/07/03 15:34:08;;;;;;;;;;;24.40;92.60;;;;;;8375301;28;19912;-83
2023/07/03 15:38:08;;;;;;;;;;;24.70;93.30;;;;;;8371259;28;19912;-83
2023/07/03 15:42:11;;;;;;;;;;;25.90;90.60;;;;;;8373472;28;19912;-83
2023/07/03 15:46:14;;;;;;;;;;;26.00;90.80;;;;;;8372749;28;20003;-83
2023/07/03 15:50:14;;;;;;;;;;;26.20;93.90;;;;;;8372813;28;20281;-83
2023/07/03 15:54:15;;;;;;;;;;;25.80;90.40;;;;;;8373752;28;19916;-83
2023/07/03 15:58:27;;;;;;;;;;;25.60;90.60;;;;;;8359888;28;19913;-83
2023/07/03 16:02:27;;;;;;;;;;;25.00;91.10;;;;;;8370103;28;19920;-83
2023/07/03 16:06:31;;;;;;;;;;;24.80;91.10;;;;;;8365151;28;20384;-83
2023/07/03 16:10:32;;;;;;;;;;;24.80;92.40;;;;;;8374610;28;19920;-83
2023/07/03 16:14:32;;;;;;;;;;;25.10;92.30;;;;;;8386987;28;19916;-83
2023/07/03 16:18:33;;;;;;;;;;;25.10;93.00;;;;;;8374608;28;20364;-82
2023/07/03 16:22:34;;;;;;;;;;;24.90;92.10;;;;;;8356130;28;19962;-83
2023/07/03 16:26:37;;;;;;;;;;;24.80;90.70;;;;;;8356603;28;19964;-83
2023/07/03 16:31:18;;;;;;;;;;;24.60;91.10;;;;;;8358460;28;19923;-84
2023/07/03 16:35:19;;;;;;;;;;;24.50;91.60;;;;;;8355533;22;19929;-83
2023/07/03 16:39:31;;;;;;;;;;;24.20;93.10;;;;;;8324552;28;19935;-83
2023/07/03 16:47:35;;;;;;;;;;;24.40;93.10;;;;;;8387432;28;20018;-83
2023/07/03 16:52:09;;;;;;;;;;;24.80;93.40;;;;;;8369089;28;20584;-83
2023/07/03 16:56:17;;;;;;;;;;;24.60;92.80;;;;;;8352055;28;20376;-83
2023/07/03 17:00:18;;;;;;;;;;;24.50;92.60;;;;;;8355878;28;19909;-83
2023/07/03 17:08:57;;;;;;;;;;;24.00;92.40;;;;;;8362105;28;19973;-79
2023/07/03 17:12:58;;;;;;;;;;;24.00;95.20;;;;;;8360982;28;20062;-79
2023/07/03 17:17:09;;;;;;;;;;;24.10;93.40;;;;;;8358286;28;20391;-80
2023/07/03 17:21:09;;;;;;;;;;;24.10;94.10;;;;;;8348954;28;20040;-79
2023/07/03 17:25:10;;;;;;;;;;;24.10;94.90;;;;;;8334627;28;19920;-79
2023/07/03 17:29:10;;;;;;;;;;;24.30;94.30;;;;;;8363614;28;19961;-79
2023/07/03 17:33:11;;;;;;;;;;;24.50;93.80;;;;;;8348325;28;19912;-79
2023/07/03 17:37:11;;;;;;;;;;;24.60;94.00;;;;;;8368745;28;19924;-79
2023/07/03 17:41:12;;;;;;;;;;;24.50;94.30;;;;;;8374035;28;19917;-79
2023/07/03 17:45:12;;;;;;;;;;;24.10;92.60;;;;;;8369267;28;19921;-79
2023/07/03 17:49:12;;;;;;;;;;;23.70;93.10;;;;;;8353871;28;19917;-79
2023/07/03 17:53:15;;;;;;;;;;;23.70;93.40;;;;;;8335224;28;19909;-79
2023/07/03 17:57:15;;;;;;;;;;;23.50;94.80;;;;;;8351046;28;20011;-77
2023/07/03 18:01:16;;;;;;;;;;;23.50;95.40;;;;;;8347641;28;19909;-77
2023/07/03 18:05:16;;;;;;;;;;;23.30;94.80;;;;;;8330007;28;20258;-78
2023/07/03 18:09:17;;;;;;;;;;;23.30;95.00;;;;;;8321363;28;19913;-77
2023/07/03 18:13:18;;;;;;;;;;;23.30;95.60;;;;;;8351480;28;19909;-78
2023/07/03 18:17:20;;;;;;;;;;;22.90;95.80;;;;;;8344337;28;19913;-77
2023/07/03 18:21:20;;;;;;;;;;;22.50;95.40;;;;;;8351103;28;19909;-77
2023/07/03 18:25:21;;;;;;;;;;;22.10;95.20;;;;;;8356022;28;19995;-78
2023/07/03 18:29:22;;;;;;;;;;;21.70;98.20;;;;;;8344404;28;19912;-77
2023/07/03 18:33:22;;;;;;;;;;;21.30;99.20;;;;;;8335465;28;19913;-77
2023/07/03 18:37:25;;;;;;;;;;;20.90;98.70;;;;;;8329485;28;19913;-77
2023/07/03 18:41:25;;;;;;;;;;;20.60;99.90;;;;;;8335910;28;19917;-78
2023/07/03 18:45:26;;;;;;;;;;;20.20;99.90;;;;;;8354369;28;20463;-77
2023/07/03 18:49:26;;;;;;;;;;;20.00;99.90;;;;;;8337085;28;19966;-77
2023/07/03 18:53:27;;;;;;;;;;;19.80;99.90;;;;;;8419243;23;19974;-85
2023/07/03 18:57:34;;;;;;;;;;;19.40;99.90;;;;;;8422214;28;19958;-85
2023/07/03 19:01:36;;;;;;;;;;;19.00;99.90;;;;;;8421535;28;19946;-85
2023/07/03 19:05:37;;;;;;;;;;;19.20;99.90;;;;;;8389826;28;19913;-85
2023/07/03 19:09:43;;;;;;;;;;;18.80;99.90;;;;;;8400198;28;20320;-85
2023/07/03 19:13:44;;;;;;;;;;;18.80;99.90;;;;;;8386339;28;19916;-85
2023/07/03 19:17:45;;;;;;;;;;;18.70;99.90;;;;;;8390335;28;19994;-85
2023/07/03 19:21:45;;;;;;;;;;;18.50;99.90;;;;;;8411581;28;19909;-84
2023/07/03 19:25:57;;;;;;;;;;;18.00;99.90;;;;;;8414247;28;19947;-85
2023/07/03 19:30:00;;;;;;;;;;;18.10;99.90;;;;;;8377679;28;19912;-84
2023/07/03 19:34:03;;;;;;;;;;;17.80;99.90;;;;;;8385725;28;20260;-85
2023/07/03 19:38:04;;;;;;;;;;;17.60;99.90;;;;;;8403467;28;20378;-85
2023/07/03 19:42:10;;;;;;;;;;;17.10;99.90;;;;;;8391371;28;19910;-85
2023/07/03 19:46:11;;;;;;;;;;;17.20;99.90;;;;;;8400470;28;19920;-87
2023/07/03 19:50:12;;;;;;;;;;;16.90;99.90;;;;;;8367703;28;19981;-78
2023/07/03 19:54:12;;;;;;;;;;;16.80;99.90;;;;;;8359987;28;20521;-79
2023/07/03 19:58:13;;;;;;;;;;;16.50;99.90;;;;;;8374821;28;19919;-80
2023/07/03 20:02:16;;;;;;;;;;;16.50;99.90;;;;;;8368360;28;19948;-80
2023/07/03 20:06:21;;;;;;;;;;;16.40;99.90;;;;;;8383749;28;20006;-80
2023/07/03 20:10:21;;;;;;;;;;;16.40;99.90;;;;;;8373935;28;20311;-80
2023/07/03 20:14:22;;;;;;;;;;;16.50;99.90;;;;;;8378698;28;19920;-80
2023/07/03 20:18:22;;;;;;;;;;;16.40;99.90;;;;;;8361584;28;19916;-80
2023/07/03 20:22:23;;;;;;;;;;;16.30;99.90;;;;;;8359246;28;19920;-80
2023/07/03 20:26:24;;;;;;;;;;;16.20;99.90;;;;;;8379238;28;20004;-81
2023/07/03 20:30:25;;;;;;;;;;;16.10;99.90;;;;;;8377092;28;19920;-80
2023/07/03 20:34:25;;;;;;;;;;;16.20;99.90;;;;;;8386304;28;19957;-80
2023/07/03 20:38:26;;;;;;;;;;;16.00;99.90;;;;;;8406374;28;20350;-79
2023/07/03 20:42:27;;;;;;;;;;;15.90;99.90;;;;;;8371271;28;19920;-79
2023/07/03 20:46:27;;;;;;;;;;;15.90;99.90;;;;;;8364405;28;19912;-80
2023/07/03 20:50:27;;;;;;;;;;;15.80;99.90;;;;;;8404458;28;19939;-79
2023/07/03 20:54:33;;;;;;;;;;;15.90;99.90;;;;;;8405267;28;19916;-80
2023/07/03 20:58:37;;;;;;;;;;;16.00;99.90;;;;;;8402945;28;19912;-80
2023/07/03 21:02:39;;;;;;;;;;;15.90;99.90;;;;;;8386273;28;19916;-82
2023/07/03 21:06:39;;;;;;;;;;;15.80;99.90;;;;;;8405773;28;19913;-79
2023/07/03 21:10:39;;;;;;;;;;;15.90;99.90;;;;;;8389698;28;19965;-80
2023/07/03 21:14:40;;;;;;;;;;;16.20;99.90;;;;;;8388951;28;19940;-80
2023/07/03 21:18:41;;;;;;;;;;;16.50;99.90;;;;;;8393234;28;20390;-80
2023/07/03 21:22:41;;;;;;;;;;;16.60;99.90;;;;;;8390082;28;19908;-80
2023/07/03 21:26:42;;;;;;;;;;;16.70;99.90;;;;;;8401360;28;20402;-80
2023/07/03 21:30:42;;;;;;;;;;;16.70;99.90;;;;;;8418319;28;19927;-80
2023/07/03 21:34:43;;;;;;;;;;;16.60;99.90;;;;;;8416433;28;19908;-80
2023/07/03 21:38:43;;;;;;;;;;;16.60;99.90;;;;;;8394168;28;19927;-80
2023/07/03 21:42:44;;;;;;;;;;;16.60;99.90;;;;;;8411455;28;19922;-80
2023/07/03 21:46:44;;;;;;;;;;;16.70;99.90;;;;;;8392937;28;19908;-80
2023/07/03 21:54:51;;;;;;;;;;;17.00;99.90;;;;;;8367438;22;19977;-80
2023/07/03 21:58:52;;;;;;;;;;;17.20;99.90;;;;;;8366580;28;20165;-80
2023/07/03 22:02:52;;;;;;;;;;;17.00;99.90;;;;;;8375740;28;19951;-80
2023/07/03 22:06:53;;;;;;;;;;;17.00;99.90;;;;;;8379191;28;19987;-81
2023/07/03 22:27:35;;;;;;;;;;;17.00;99.90;;;;;;8323572;26;19926;-79
2023/07/03 22:31:35;;;;;;;;;;;17.10;99.90;;;;;;8377345;22;20368;-79
2023/07/03 22:35:36;;;;;;;;;;;16.90;99.90;;;;;;8387854;28;19916;-79
2023/07/03 22:39:36;;;;;;;;;;;16.90;99.90;;;;;;8381547;28;20012;-79
2023/07/03 22:43:37;;;;;;;;;;;17.20;99.90;;;;;;8361943;28;19997;-81
2023/07/03 22:47:38;;;;;;;;;;;17.10;99.90;;;;;;8335440;28;19908;-79
2023/07/03 22:51:39;;;;;;;;;;;16.90;99.90;;;;;;8338648;28;19939;-79
2023/07/03 22:55:40;;;;;;;;;;;16.80;99.90;;;;;;8358597;28;20491;-79
2023/07/03 22:59:41;;;;;;;;;;;16.90;99.90;;;;;;8341505;28;19909;-79
2023/07/03 23:04:12;;;;;;;;;;;16.80;99.90;;;;;;8363036;22;20387;-79
2023/07/03 23:08:53;;;;;;;;;;;17.00;99.90;;;;;;8348472;28;19958;-80
2023/07/03 23:12:58;;;;;;;;;;;16.80;99.90;;;;;;8384233;28;20011;-80
2023/07/03 23:17:18;;;;;;;;;;;16.80;99.90;;;;;;8343555;28;19909;-80
2023/07/03 23:21:39;;;;;;;;;;;16.90;99.90;;;;;;8360277;28;19914;-79
2023/07/03 23:26:06;;;;;;;;;;;16.90;99.90;;;;;;8364893;28;20032;-79
2023/07/03 23:30:08;;;;;;;;;;;17.00;99.90;;;;;;8274968;28;20372;-79
2023/07/03 23:34:29;;;;;;;;;;;16.90;99.90;;;;;;8334308;28;19913;-80
2023/07/03 23:38:58;;;;;;;;;;;16.90;99.90;;;;;;8295458;28;19936;-80
2023/07/03 23:43:07;;;;;;;;;;;16.90;99.90;;;;;;8362105;28;19913;-80
2023/07/03 23:47:19;;;;;;;;;;;16.90;99.90;;;;;;8367514;28;20280;-80
2023/07/03 23:51:25;;;;;;;;;;;16.70;99.90;;;;;;8385249;28;19912;-79
2023/07/03 23:55:38;;;;;;;;;;;16.90;99.90;;;;;;8360911;28;19994;-80
2023/07/03 23:59:38;;;;;;;;;;;17.10;99.90;;;;;;8378206;28;19992;-79
